Time;durP1;ratioP1;P1;durP2;ratioP2;P2;SDS_P1;SDS_P2;PMS_P1;PMS_P2;Temp;Humidity;BMP_temperature;BMP_pressure;BME280_temperature;BME280_humidity;BME280_pressure;Samples;Min_cycle;Max_cycle;Signal;HPM_P1;HPM_P2
2023/01/11 00:00:44;;;;;;;0.50;0.50;;;;;;;6.03;100.00;98869.06;5051553;28;20712;-66
2023/01/11 00:03:11;;;;;;;0.60;0.60;;;;;;;6.00;100.00;98869.97;5051830;28;20208;-66
2023/01/11 00:05:40;;;;;;;0.60;0.60;;;;;;;6.03;100.00;98876.69;5051390;28;20216;-66
2023/01/11 00:08:07;;;;;;;0.50;0.50;;;;;;;5.98;100.00;98865.78;5051615;28;20219;-66
2023/01/11 00:10:34;;;;;;;0.40;0.40;;;;;;;5.98;100.00;98869.13;5051501;28;20197;-66
2023/01/11 00:13:01;;;;;;;0.60;0.60;;;;;;;5.94;100.00;98882.81;5051372;28;20660;-66
2023/01/11 00:15:28;;;;;;;0.50;0.50;;;;;;;5.99;100.00;98881.00;5051397;28;20204;-66
2023/01/11 00:17:56;;;;;;;0.57;0.57;;;;;;;5.95;100.00;98889.53;5051221;28;20719;-66
2023/01/11 00:20:23;;;;;;;0.50;0.50;;;;;;;5.94;100.00;98889.59;5051400;28;20200;-66
2023/01/11 00:22:51;;;;;;;0.60;0.60;;;;;;;5.98;100.00;98894.56;5048985;28;20197;-66
2023/01/11 00:25:18;;;;;;;0.40;0.40;;;;;;;5.93;100.00;98888.75;5050978;28;20262;-66
2023/01/11 00:27:46;;;;;;;0.50;0.50;;;;;;;5.97;100.00;98889.53;5051292;28;20665;-66
2023/01/11 00:30:13;;;;;;;0.50;0.50;;;;;;;5.99;100.00;98891.16;5051124;28;20665;-66
2023/01/11 00:32:40;;;;;;;0.60;0.60;;;;;;;6.03;100.00;98897.88;5051330;28;20200;-66
2023/01/11 00:35:08;;;;;;;0.43;0.43;;;;;;;6.02;100.00;98903.00;5051317;28;20200;-66
2023/01/11 00:37:36;;;;;;;0.60;0.60;;;;;;;6.02;100.00;98910.63;5051265;28;20639;-66
2023/01/11 00:40:05;;;;;;;0.50;0.50;;;;;;;5.98;100.00;98899.66;5050798;28;20204;-66
2023/01/11 00:48:04;;;;;;;0.50;0.50;;;;;;;5.90;100.00;98911.72;5050854;28;20676;-66
2023/01/11 00:50:34;;;;;;;0.50;0.50;;;;;;;5.80;100.00;98900.00;5051248;28;20684;-66
2023/01/11 00:53:01;;;;;;;0.50;0.50;;;;;;;5.86;100.00;98914.31;5050878;28;20648;-66
2023/01/11 00:55:30;;;;;;;0.60;0.60;;;;;;;5.86;100.00;98915.16;5045422;28;20209;-66
2023/01/11 00:57:57;;;;;;;0.70;0.70;;;;;;;5.82;100.00;98911.81;5050681;28;20213;-66
2023/01/11 01:00:24;;;;;;;0.50;0.50;;;;;;;5.80;100.00;98915.25;5050927;28;20574;-66
2023/01/11 01:02:51;;;;;;;0.53;0.53;;;;;;;5.73;100.00;98906.06;5050882;28;20200;-66
2023/01/11 01:05:18;;;;;;;0.60;0.60;;;;;;;5.83;100.00;98920.28;5050546;28;20247;-66
2023/01/11 01:07:46;;;;;;;0.50;0.50;;;;;;;5.82;100.00;98914.34;5051307;28;20197;-66
2023/01/11 01:10:16;;;;;;;0.47;0.47;;;;;;;5.86;100.00;98917.72;5050482;28;20192;-66
2023/01/11 01:15:29;;;;;;;0.50;0.50;;;;;;;5.74;100.00;98900.13;5050034;28;20211;-67
2023/01/11 01:17:56;;;;;;;0.50;0.50;;;;;;;5.88;100.00;98918.50;5050365;28;20216;-66
2023/01/11 01:20:24;;;;;;;0.50;0.50;;;;;;;5.82;100.00;98913.50;5050176;28;20250;-66
2023/01/11 01:22:52;;;;;;;0.60;0.60;;;;;;;5.80;100.00;98910.16;5046597;28;20197;-66
2023/01/11 01:25:18;;;;;;;0.70;0.70;;;;;;;5.93;100.00;98915.91;5050611;28;20215;-66
2023/01/11 01:27:47;;;;;;;0.60;0.60;;;;;;;5.93;100.00;98911.66;5050537;28;20197;-66
2023/01/11 01:30:14;;;;;;;0.50;0.50;;;;;;;5.90;100.00;98916.78;5050301;28;20197;-66
2023/01/11 01:32:40;;;;;;;0.50;0.50;;;;;;;5.89;100.00;98924.44;5049924;28;20665;-66
2023/01/11 01:35:08;;;;;;;0.50;0.50;;;;;;;5.91;100.00;98922.72;5050581;28;20635;-66
2023/01/11 01:37:35;;;;;;;0.63;0.63;;;;;;;5.90;100.00;98921.88;5052528;28;20588;-66
2023/01/11 01:40:02;;;;;;;0.57;0.57;;;;;;;5.82;100.00;98913.50;5054159;28;20193;-66
2023/01/11 01:42:28;;;;;;;0.60;0.60;;;;;;;5.94;100.00;98923.50;5053590;28;20200;-66
2023/01/11 01:45:03;;;;;;;0.57;0.57;;;;;;;5.95;100.00;98925.16;5054190;28;20597;-66
2023/01/11 01:47:35;;;;;;;0.40;0.40;;;;;;;5.95;100.00;98927.72;5053483;28;20192;-66
2023/01/11 01:50:07;;;;;;;0.50;0.50;;;;;;;5.79;100.00;98899.16;5054121;28;20255;-66
2023/01/11 01:52:35;;;;;;;0.40;0.40;;;;;;;5.88;100.00;98913.41;5053380;28;20205;-66
2023/01/11 01:55:07;;;;;;;0.50;0.50;;;;;;;5.92;100.00;98924.38;5054084;28;20197;-66
2023/01/11 01:57:37;;;;;;;0.63;0.63;;;;;;;5.92;100.00;98925.22;5053015;28;20221;-66
2023/01/11 02:00:08;;;;;;;0.60;0.60;;;;;;;5.80;100.00;98905.94;5054071;28;20201;-66
2023/01/11 02:02:37;;;;;;;0.53;0.53;;;;;;;5.91;100.00;98927.81;5052939;28;20189;-66
2023/01/11 02:05:04;;;;;;;0.40;0.40;;;;;;;5.87;100.00;98921.94;5053662;28;20259;-66
2023/01/11 02:07:34;;;;;;;0.50;0.50;;;;;;;5.93;100.00;98926.91;5053605;28;20204;-66
2023/01/11 02:10:05;;;;;;;0.60;0.60;;;;;;;5.94;100.00;98925.22;5054071;28;20592;-66
2023/01/11 02:12:36;;;;;;;0.50;0.50;;;;;;;5.96;100.00;98931.09;5053851;28;20204;-67
2023/01/11 02:15:06;;;;;;;0.50;0.50;;;;;;;5.95;100.00;98920.06;5053084;28;20205;-66
2023/01/11 02:17:33;;;;;;;0.40;0.40;;;;;;;5.98;100.00;98935.28;5053615;28;20229;-66
2023/01/11 02:20:12;;;;;;;0.50;0.50;;;;;;;5.88;100.00;98922.78;5053508;28;20673;-66
2023/01/11 02:23:09;;;;;;;0.50;0.50;;;;;;;6.00;100.00;98948.81;5053055;28;20262;-66
2023/01/11 02:26:12;;;;;;;0.50;0.50;;;;;;;5.90;100.00;98937.16;5053585;28;20209;-66
2023/01/11 02:28:48;;;;;;;0.60;0.60;;;;;;;6.00;100.00;98938.66;5051353;28;20246;-66
2023/01/11 02:31:27;;;;;;;0.43;0.43;;;;;;;5.96;100.00;98941.28;5053419;28;20199;-66
2023/01/11 02:34:05;;;;;;;0.50;0.50;;;;;;;5.97;100.00;98953.13;5053057;28;20210;-66
2023/01/11 02:36:39;;;;;;;0.50;0.50;;;;;;;5.95;100.00;98949.75;5053139;28;20192;-67
2023/01/11 02:39:17;;;;;;;0.60;0.60;;;;;;;5.96;100.00;98948.91;5052793;28;20228;-66
2023/01/11 02:47:33;;;;;;;0.60;0.60;;;;;;;5.90;100.00;98941.38;5052110;28;20204;-66
2023/01/11 02:50:10;;;;;;;0.50;0.50;;;;;;;5.90;100.00;98942.22;5052923;28;20742;-66
2023/01/11 02:52:46;;;;;;;0.57;0.57;;;;;;;5.85;100.00;98936.34;5053076;28;20668;-66
2023/01/11 02:55:16;;;;;;;0.40;0.40;;;;;;;5.90;100.00;98937.16;5052687;28;20219;-66
2023/01/11 02:57:46;;;;;;;0.50;0.50;;;;;;;5.92;100.00;98937.09;5052955;28;20692;-67
2023/01/11 03:00:17;;;;;;;0.50;0.50;;;;;;;5.95;100.00;98940.44;5051580;28;20208;-66
2023/01/11 03:02:44;;;;;;;0.50;0.50;;;;;;;5.94;100.00;98937.94;5052779;28;20283;-66
2023/01/11 03:05:13;;;;;;;0.50;0.50;;;;;;;5.89;100.00;98930.38;5052314;28;20220;-66
2023/01/11 03:08:00;;;;;;;0.50;0.50;;;;;;;5.85;100.00;98921.09;5052712;28;20200;-66
2023/01/11 03:10:39;;;;;;;0.60;0.60;;;;;;;5.95;100.00;98935.34;5051043;28;20201;-66
2023/01/11 03:13:16;;;;;;;0.70;0.70;;;;;;;5.91;100.00;98931.19;5052489;28;20196;-66
2023/01/11 03:15:55;;;;;;;0.63;0.63;;;;;;;5.95;100.00;98945.50;5052782;28;20197;-66
2023/01/11 03:18:33;;;;;;;0.60;0.60;;;;;;;5.94;100.00;98940.47;5052253;28;20277;-66
2023/01/11 03:21:11;;;;;;;0.60;0.60;;;;;;;5.99;100.00;98942.06;5049484;28;20197;-66
2023/01/11 03:23:45;;;;;;;0.70;0.70;;;;;;;5.95;100.00;98945.50;5051580;28;20254;-66
2023/01/11 03:26:22;;;;;;;1.03;1.03;;;;;;;5.93;100.00;98947.25;5051938;28;20200;-66
2023/01/11 03:28:54;;;;;;;0.50;0.50;;;;;;;5.92;100.00;98937.94;5051571;28;20715;-66
2023/01/11 03:31:33;;;;;;;0.60;0.60;;;;;;;5.81;100.00;98916.94;5052151;28;20254;-66
2023/01/11 03:34:09;;;;;;;0.50;0.50;;;;;;;5.94;100.00;98948.94;5048669;28;20220;-66
2023/01/11 03:36:41;;;;;;;0.50;0.50;;;;;;;5.91;100.00;98943.06;5052051;28;20208;-66
2023/01/11 03:39:15;;;;;;;0.63;0.63;;;;;;;5.91;100.00;98943.91;5051473;28;20227;-66
2023/01/11 03:41:44;;;;;;;0.67;0.67;;;;;;;5.87;100.00;98937.19;5051777;28;20204;-66
2023/01/11 03:44:14;;;;;;;0.50;0.50;;;;;;;5.99;100.00;98956.47;5051683;28;20201;-66
2023/01/11 03:46:46;;;;;;;0.50;0.50;;;;;;;5.97;100.00;98953.97;5051811;28;20703;-66
2023/01/11 03:49:18;;;;;;;0.50;0.50;;;;;;;5.88;100.00;98953.31;5051462;28;20197;-66
2023/01/11 03:51:46;;;;;;;0.50;0.50;;;;;;;6.02;100.00;98962.34;5051854;28;20251;-66
2023/01/11 03:54:23;;;;;;;0.57;0.57;;;;;;;5.97;100.00;98965.84;5051520;28;20205;-67
2023/01/11 03:56:56;;;;;;;0.57;0.57;;;;;;;5.97;100.00;98976.03;5051794;28;20204;-66
2023/01/11 03:59:23;;;;;;;0.50;0.50;;;;;;;6.00;100.00;98979.34;5051237;28;20692;-66
2023/01/11 04:01:53;;;;;;;0.60;0.60;;;;;;;6.03;100.00;98989.47;5051135;28;20200;-66
2023/01/11 04:04:19;;;;;;;0.60;0.60;;;;;;;6.00;100.00;98994.63;5051489;28;20228;-66
2023/01/11 04:06:46;;;;;;;0.70;0.70;;;;;;;5.95;100.00;98983.69;5051473;28;20578;-66
2023/01/11 04:09:13;;;;;;;0.60;0.60;;;;;;;6.05;100.00;99008.09;5051364;28;20200;-66
2023/01/11 04:11:40;;;;;;;0.50;0.50;;;;;;;6.00;100.00;99009.88;5051432;28;20580;-66
2023/01/11 04:14:07;;;;;;;0.53;0.53;;;;;;;6.00;100.00;99017.53;5051345;28;20203;-66
2023/01/11 04:16:33;;;;;;;0.60;0.60;;;;;;;6.01;100.00;99010.72;5051395;28;20201;-66
2023/01/11 04:19:02;;;;;;;0.70;0.70;;;;;;;5.98;100.00;99005.69;5048304;28;20294;-66
2023/01/11 04:21:29;;;;;;;0.60;0.60;;;;;;;6.01;100.00;99010.72;5051497;28;20273;-66
2023/01/11 04:23:56;;;;;;;0.60;0.60;;;;;;;6.05;100.00;99028.44;5051394;28;20197;-66
2023/01/11 04:26:23;;;;;;;0.60;0.60;;;;;;;6.05;100.00;99032.69;5051126;28;20197;-66
2023/01/11 04:28:49;;;;;;;0.50;0.50;;;;;;;6.04;100.00;99026.75;5050889;28;20199;-66
2023/01/11 04:31:16;;;;;;;0.50;0.50;;;;;;;6.06;100.00;99029.28;5051148;28;20574;-66
2023/01/11 04:33:43;;;;;;;0.50;0.50;;;;;;;6.05;100.00;99023.34;5051172;28;20254;-66
2023/01/11 04:36:12;;;;;;;0.50;0.50;;;;;;;6.00;100.00;99035.34;5049813;28;20196;-66
2023/01/11 04:38:38;;;;;;;0.50;0.50;;;;;;;6.01;100.00;99024.25;5050614;28;20217;-66
2023/01/11 04:43:49;;;;;;;0.60;0.60;;;;;;;5.97;100.00;99030.31;5050931;28;20199;-66
2023/01/11 04:46:16;;;;;;;0.57;0.57;;;;;;;5.95;100.00;99037.09;5051091;28;20193;-66
2023/01/11 04:48:43;;;;;;;0.60;0.60;;;;;;;5.95;100.00;99037.09;5051176;28;20196;-66
2023/01/11 04:51:11;;;;;;;0.50;0.50;;;;;;;5.89;100.00;99029.56;5050979;28;20229;-66
2023/01/11 04:53:38;;;;;;;0.60;0.60;;;;;;;5.94;100.00;99039.69;5050903;28;20197;-66
2023/01/11 04:56:07;;;;;;;0.60;0.60;;;;;;;5.97;100.00;99035.38;5050809;28;20211;-66
2023/01/11 04:58:35;;;;;;;0.60;0.60;;;;;;;5.98;100.00;99044.69;5050857;28;20720;-66
2023/01/11 05:01:07;;;;;;;0.47;0.47;;;;;;;5.96;100.00;99054.06;5051007;28;20590;-66
2023/01/11 05:03:34;;;;;;;0.60;0.60;;;;;;;5.95;100.00;99047.28;5050862;28;20197;-66
2023/01/11 05:06:02;;;;;;;0.60;0.60;;;;;;;5.97;100.00;99054.91;5050286;28;20612;-66
2023/01/11 05:08:30;;;;;;;0.50;0.50;;;;;;;5.96;100.00;99053.22;5050594;28;20215;-66
2023/01/11 05:10:59;;;;;;;0.60;0.60;;;;;;;5.99;100.00;99060.78;5049349;28;20665;-66
2023/01/11 05:13:40;;;;;;;0.50;0.50;;;;;;;5.97;100.00;99065.91;5054610;28;20204;-66
2023/01/11 05:16:08;;;;;;;0.60;0.60;;;;;;;5.99;100.00;99074.34;5054481;28;20203;-66
2023/01/11 05:18:36;;;;;;;0.53;0.53;;;;;;;6.03;100.00;99075.97;5054396;28;20224;-66
2023/01/11 05:21:04;;;;;;;0.70;0.70;;;;;;;6.01;100.00;99070.06;5053420;28;20209;-66
2023/01/11 05:23:36;;;;;;;0.47;0.47;;;;;;;6.00;100.00;99070.94;5053224;28;20196;-66
2023/01/11 05:26:05;;;;;;;0.60;0.60;;;;;;;5.99;100.00;99074.34;5054586;28;20230;-66
2023/01/11 05:28:31;;;;;;;0.60;0.60;;;;;;;5.95;100.00;99062.53;5053577;28;20205;-66
2023/01/11 05:30:58;;;;;;;0.70;0.70;;;;;;;5.94;100.00;99073.59;5054260;28;20201;-66
2023/01/11 05:33:25;;;;;;;0.60;0.60;;;;;;;5.93;100.00;99077.00;5053899;28;20200;-66
2023/01/11 05:35:56;;;;;;;0.40;0.40;;;;;;;5.89;100.00;99067.72;5054017;28;20200;-66
2023/01/11 05:38:23;;;;;;;0.67;0.67;;;;;;;5.92;100.00;99077.84;5052993;28;20209;-66
2023/01/11 05:40:55;;;;;;;0.50;0.50;;;;;;;5.91;100.00;99071.09;5054139;28;20201;-66
2023/01/11 05:43:22;;;;;;;0.70;0.70;;;;;;;5.89;100.00;99080.44;5053933;28;20208;-66
2023/01/11 05:45:48;;;;;;;0.63;0.63;;;;;;;5.82;100.00;99087.31;5054482;28;20196;-66
2023/01/11 05:48:15;;;;;;;0.60;0.60;;;;;;;5.81;100.00;99084.81;5053846;28;20197;-66
2023/01/11 05:50:42;;;;;;;0.47;0.47;;;;;;;5.80;100.00;99093.28;5053755;28;20211;-66
2023/01/11 05:53:10;;;;;;;1.57;1.57;;;;;;;5.77;100.00;99094.19;5052838;28;20579;-66
2023/01/11 05:55:36;;;;;;;0.60;0.60;;;;;;;5.77;100.00;99099.28;5053935;28;20201;-67
2023/01/11 05:58:08;;;;;;;0.40;0.40;;;;;;;5.77;100.00;99098.44;5053986;28;20600;-66
2023/01/11 06:00:35;;;;;;;0.60;0.60;;;;;;;5.70;100.00;99107.00;5051641;28;20220;-66
2023/01/11 06:03:02;;;;;;;0.60;0.60;;;;;;;5.72;100.00;99110.34;5053710;28;20201;-66
2023/01/11 06:05:28;;;;;;;0.50;0.50;;;;;;;5.64;100.00;99123.22;5053752;28;20311;-66
2023/01/11 06:07:55;;;;;;;0.50;0.50;;;;;;;5.60;100.00;99100.38;5053355;28;20197;-67
2023/01/11 06:10:22;;;;;;;0.60;0.60;;;;;;;5.60;100.00;99125.81;5053445;28;20209;-67
2023/01/11 06:13:25;;;;;;;0.50;0.50;;;;;;;5.58;100.00;99123.31;5051832;28;20219;-67
2023/01/11 06:15:41;;;;;;;0.50;0.50;;;;;;;5.58;100.00;99112.28;5053367;28;20575;-66
2023/01/11 06:18:07;;;;;;;0.50;0.50;;;;;;;5.61;100.00;99122.41;5053710;28;20213;-66
2023/01/11 06:20:34;;;;;;;0.50;0.50;;;;;;;5.61;100.00;99128.34;5053476;28;20219;-66
2023/01/11 06:23:01;;;;;;;0.70;0.70;;;;;;;5.59;100.00;99130.03;5052798;28;20212;-66
2023/01/11 06:25:29;;;;;;;0.67;0.67;;;;;;;5.49;100.00;99112.44;5053332;28;20201;-66
2023/01/11 06:27:56;;;;;;;0.50;0.50;;;;;;;5.61;100.00;99133.44;5053345;28;20247;-66
2023/01/11 06:30:24;;;;;;;0.60;0.60;;;;;;;5.60;100.00;99128.34;5053293;28;20208;-66
2023/01/11 06:32:53;;;;;;;0.57;0.57;;;;;;;5.59;100.00;99136.84;5050513;28;20251;-66
2023/01/11 06:35:20;;;;;;;0.50;0.50;;;;;;;5.58;100.00;99132.63;5053391;28;20283;-66
2023/01/11 06:37:47;;;;;;;0.50;0.50;;;;;;;5.62;100.00;99139.34;5052961;28;20207;-66
2023/01/11 06:40:14;;;;;;;0.67;0.67;;;;;;;5.63;100.00;99149.50;5051491;28;20224;-64
2023/01/11 06:42:40;;;;;;;0.50;0.50;;;;;;;5.65;100.00;99149.47;5053387;28;20219;-64
2023/01/11 06:45:09;;;;;;;0.60;0.60;;;;;;;5.76;100.00;99157.78;5052770;28;20201;-64
2023/01/11 06:47:36;;;;;;;0.50;0.50;;;;;;;5.77;100.00;99149.28;5053155;28;20197;-64
2023/01/11 06:50:04;;;;;;;0.50;0.50;;;;;;;5.82;100.00;99157.69;5052878;28;20204;-64
2023/01/11 06:52:31;;;;;;;0.70;0.70;;;;;;;5.88;100.00;99161.88;5052777;28;20201;-66
2023/01/11 06:54:58;;;;;;;0.40;0.40;;;;;;;5.90;100.00;99166.09;5051909;28;20201;-66
2023/01/11 06:57:25;;;;;;;0.47;0.47;;;;;;;5.91;100.00;99167.78;5052522;28;20200;-66
2023/01/11 06:59:52;;;;;;;0.50;0.50;;;;;;;5.90;100.00;99155.91;5052649;28;20215;-66
2023/01/11 07:02:19;;;;;;;0.60;0.60;;;;;;;6.00;100.00;99170.19;5052242;28;20205;-66
2023/01/11 07:04:45;;;;;;;0.80;0.80;;;;;;;6.06;100.00;99172.63;5052081;28;20236;-66
2023/01/11 07:07:14;;;;;;;0.60;0.60;;;;;;;6.08;100.00;99177.66;5049381;28;20263;-70
2023/01/11 07:09:40;;;;;;;0.50;0.50;;;;;;;6.07;100.00;99174.31;5048816;28;20197;-70
2023/01/11 07:12:07;;;;;;;0.50;0.50;;;;;;;6.19;100.00;99184.28;5049039;28;20966;-66
2023/01/11 07:14:34;;;;;;;0.60;0.60;;;;;;;6.37;100.00;99197.56;5048053;28;20632;-66
2023/01/11 07:17:01;;;;;;;0.57;0.57;;;;;;;6.40;100.00;99200.09;5048999;28;20592;-66
2023/01/11 07:19:27;;;;;;;0.60;0.60;;;;;;;6.42;100.00;99196.63;5048649;28;20229;-65
2023/01/11 07:21:54;;;;;;;0.80;0.80;;;;;;;6.49;100.00;99192.28;5049072;28;20581;-66
2023/01/11 07:24:23;;;;;;;0.50;0.50;;;;;;;6.51;100.00;99203.28;5047015;28;20220;-65
2023/01/11 07:26:51;;;;;;;0.57;0.57;;;;;;;6.51;100.00;99198.19;5050122;28;20204;-66
2023/01/11 07:29:18;;;;;;;0.50;0.50;;;;;;;6.60;100.00;99195.47;5048875;28;20208;-67
2023/01/11 07:31:46;;;;;;;0.60;0.60;;;;;;;6.66;100.00;99191.09;5049952;28;20695;-66
2023/01/11 07:34:13;;;;;;;1.00;1.00;;;;;;;6.72;100.00;99201.19;5049821;28;20197;-66
2023/01/11 07:36:40;;;;;;;0.70;0.70;;;;;;;6.70;100.00;99184.25;5047445;28;20232;-66
2023/01/11 07:39:07;;;;;;;0.73;0.73;;;;;;;6.80;100.00;99203.59;5048904;28;20616;-66
2023/01/11 07:44:19;;;;;;;0.40;0.40;;;;;;;6.75;100.00;99216.41;5049263;28;20207;-66
2023/01/11 07:46:46;;;;;;;0.60;0.60;;;;;;;6.78;100.00;99226.56;5049242;28;20255;-66
2023/01/11 07:49:13;;;;;;;0.60;0.60;;;;;;;6.83;100.00;99234.97;5051357;28;20216;-66
2023/01/11 07:51:40;;;;;;;0.50;0.50;;;;;;;6.92;100.00;99244.13;5051145;28;20200;-65
2023/01/11 07:54:06;;;;;;;0.57;0.57;;;;;;;6.96;100.00;99255.13;5051042;28;20209;-66
2023/01/11 07:56:35;;;;;;;0.57;0.57;;;;;;;6.98;100.00;99253.41;5051525;28;20201;-65
2023/01/11 07:59:01;;;;;;;0.70;0.70;;;;;;;7.05;100.00;99260.91;5051324;28;20201;-66
2023/01/11 08:01:28;;;;;;;0.53;0.53;;;;;;;7.09;100.00;99252.31;5051414;28;20204;-66
2023/01/11 08:03:55;;;;;;;0.40;0.40;;;;;;;7.21;100.00;99261.44;5050134;28;20688;-66
2023/01/11 08:06:22;;;;;;;0.60;0.60;;;;;;;7.19;100.00;99251.28;5051328;28;20200;-66
2023/01/11 08:08:49;;;;;;;0.70;0.70;;;;;;;7.36;100.00;99256.91;5050723;28;20661;-66
2023/01/11 08:16:45;;;;;;;0.50;0.50;;;;;;;7.93;100.00;99277.00;5051018;28;20216;-65
2023/01/11 08:19:12;;;;;;;0.50;0.50;;;;;;;8.06;100.00;99278.41;5050961;28;20200;-66
2023/01/11 08:21:38;;;;;;;0.60;0.60;;;;;;;8.22;100.00;99281.44;5049687;28;20209;-66
2023/01/11 08:24:06;;;;;;;0.40;0.40;;;;;;;8.34;100.00;99287.16;5050764;28;20246;-66
2023/01/11 08:26:32;;;;;;;0.47;0.47;;;;;;;8.38;100.00;99277.69;5050911;28;20219;-66
2023/01/11 08:29:00;;;;;;;0.50;0.50;;;;;;;8.50;98.83;99286.81;5050875;28;20200;-66
2023/01/11 08:31:30;;;;;;;0.50;0.50;;;;;;;8.54;99.09;99288.41;5050933;28;20200;-66
2023/01/11 08:33:57;;;;;;;0.53;0.53;;;;;;;8.60;99.15;99281.44;5050779;28;20243;-66
2023/01/11 08:36:26;;;;;;;0.87;0.87;;;;;;;8.68;98.08;99284.66;5050687;28;20589;-66
2023/01/11 08:38:55;;;;;;;0.50;0.50;;;;;;;8.75;97.81;99291.28;5050513;28;20738;-66
2023/01/11 08:41:21;;;;;;;0.50;0.50;;;;;;;8.88;97.54;99296.94;5050711;28;20217;-66
2023/01/11 08:43:48;;;;;;;0.60;0.60;;;;;;;9.03;96.41;99299.09;5050560;28;20197;-66
2023/01/11 08:46:18;;;;;;;0.50;0.50;;;;;;;9.10;96.40;99304.91;5050428;28;20201;-66
2023/01/11 08:48:46;;;;;;;0.50;0.50;;;;;;;9.12;92.99;99306.53;5050846;28;20579;-66
2023/01/11 08:51:13;;;;;;;0.63;0.63;;;;;;;9.15;93.54;99314.13;5050395;28;20291;-66
2023/01/11 08:53:40;;;;;;;0.60;0.60;;;;;;;9.13;93.27;99317.59;5050639;28;20708;-66
2023/01/11 08:56:08;;;;;;;0.50;0.50;;;;;;;9.12;94.27;99319.31;5049234;28;20200;-66
2023/01/11 08:58:35;;;;;;;0.47;0.47;;;;;;;9.04;94.45;99316.13;5050479;28;20213;-66
2023/01/11 09:01:03;;;;;;;0.50;0.50;;;;;;;9.02;94.90;99322.97;5050320;28;20212;-66
2023/01/11 09:03:31;;;;;;;0.53;0.53;;;;;;;8.97;94.56;99329.94;5050468;28;20204;-66
2023/01/11 09:05:58;;;;;;;1.33;1.33;;;;;;;8.91;93.46;99328.38;5050133;28;20247;-66
2023/01/11 09:08:25;;;;;;;0.60;0.60;;;;;;;8.79;93.61;99305.66;5050167;28;20197;-66
2023/01/11 09:10:58;;;;;;;0.60;0.60;;;;;;;8.85;94.04;99327.69;5050541;28;20196;-66
2023/01/11 09:13:25;;;;;;;0.47;0.47;;;;;;;8.80;95.01;99332.06;5050538;28;20710;-66
2023/01/11 09:15:55;;;;;;;0.50;0.50;;;;;;;8.82;95.55;99328.59;5050306;28;20615;-66
2023/01/11 09:18:25;;;;;;;1.00;1.00;;;;;;;8.78;94.85;99337.22;5050318;28;20665;-66
2023/01/11 09:20:53;;;;;;;0.47;0.47;;;;;;;8.79;95.83;99335.47;5050305;28;20217;-66
2023/01/11 09:23:20;;;;;;;0.50;0.50;;;;;;;8.79;96.75;99330.38;5046677;28;20205;-66
2023/01/11 09:25:47;;;;;;;0.40;0.40;;;;;;;8.80;95.46;99327.78;5050036;28;20197;-66
2023/01/11 09:28:14;;;;;;;0.50;0.50;;;;;;;8.79;95.97;99326.09;5049937;28;20204;-66
2023/01/11 09:30:40;;;;;;;0.40;0.40;;;;;;;8.84;96.99;99319.19;5049088;28;20208;-66
2023/01/11 09:33:07;;;;;;;0.50;0.50;;;;;;;8.85;96.91;99320.03;5050097;28;20204;-65
2023/01/11 09:35:34;;;;;;;0.50;0.50;;;;;;;8.92;96.18;99321.53;5049999;28;20207;-66
2023/01/11 09:38:02;;;;;;;0.50;0.50;;;;;;;8.95;96.82;99316.34;5049949;28;20239;-66
2023/01/11 09:40:41;;;;;;;0.53;0.53;;;;;;;9.01;97.32;99318.78;5049783;28;20221;-66
2023/01/11 09:43:11;;;;;;;0.67;0.67;;;;;;;9.02;93.90;99312.75;5050241;28;20201;-66
2023/01/11 09:45:45;;;;;;;0.50;0.50;;;;;;;9.07;94.31;99310.94;5050049;28;20197;-66
2023/01/11 09:48:27;;;;;;;0.53;0.53;;;;;;;9.08;94.98;99312.59;5049963;28;20215;-66
2023/01/11 09:50:56;;;;;;;0.70;0.70;;;;;;;9.12;94.38;99305.69;5050348;28;20296;-66
2023/01/11 09:53:30;;;;;;;0.57;0.57;;;;;;;9.10;93.74;99303.19;5049671;28;20200;-66
2023/01/11 09:56:01;;;;;;;0.40;0.40;;;;;;;9.09;93.27;99314.28;5050226;28;20664;-66
2023/01/11 09:58:41;;;;;;;0.40;0.40;;;;;;;9.15;93.76;99321.78;5051603;28;20197;-66
2023/01/11 10:01:14;;;;;;;0.43;0.43;;;;;;;9.20;94.75;99327.66;5053771;28;20278;-66
2023/01/11 10:04:14;;;;;;;0.40;0.40;;;;;;;9.21;93.38;99328.50;5053386;28;20673;-66
2023/01/11 10:06:51;;;;;;;0.60;0.60;;;;;;;9.24;92.33;99324.09;5051878;28;20550;-70
2023/01/11 10:09:32;;;;;;;0.60;0.60;;;;;;;9.44;92.38;99321.88;5053581;28;20235;-70
2023/01/11 10:12:13;;;;;;;0.43;0.43;;;;;;;9.45;91.57;99328.69;5050978;28;20684;-70
2023/01/11 10:14:57;;;;;;;0.50;0.50;;;;;;;9.39;92.28;99323.72;5050447;28;20201;-70
2023/01/11 10:17:37;;;;;;;0.50;0.50;;;;;;;9.43;93.77;99330.41;5052388;28;20212;-70
2023/01/11 10:20:16;;;;;;;0.47;0.47;;;;;;;9.43;93.35;99325.31;5050214;28;20274;-70
2023/01/11 10:22:46;;;;;;;0.40;0.40;;;;;;;9.49;93.01;99320.06;5047914;28;20262;-69
2023/01/11 10:25:22;;;;;;;0.40;0.40;;;;;;;9.46;94.02;99322.69;5047418;28;20586;-69
2023/01/11 10:27:56;;;;;;;0.50;0.50;;;;;;;9.48;93.59;99328.59;5051919;28;20216;-70
2023/01/11 10:30:52;;;;;;;0.40;0.40;;;;;;;9.52;93.71;99328.50;5050913;28;20196;-72
2023/01/11 10:33:48;;;;;;;0.47;0.47;;;;;;;9.46;93.03;99322.69;5051926;28;20283;-73
2023/01/11 10:36:34;;;;;;;0.40;0.40;;;;;;;9.41;93.30;99313.44;5052267;28;20574;-73
2023/01/11 10:39:20;;;;;;;0.60;0.60;;;;;;;9.46;93.14;99309.91;5051540;28;20197;-73
2023/01/11 10:41:59;;;;;;;0.50;0.50;;;;;;;9.50;94.84;99310.63;5049754;28;20224;-72
2023/01/11 10:44:33;;;;;;;0.50;0.50;;;;;;;9.60;93.37;99311.22;5051349;28;20281;-72
2023/01/11 10:47:02;;;;;;;0.40;0.40;;;;;;;9.53;93.83;99299.50;5050909;28;20232;-72
2023/01/11 10:49:43;;;;;;;0.30;0.30;;;;;;;9.61;93.63;99302.66;5049659;28;20565;-72
2023/01/11 10:52:28;;;;;;;0.40;0.40;;;;;;;9.69;94.53;99306.72;5048258;28;20208;-72
2023/01/11 10:54:56;;;;;;;0.40;0.40;;;;;;;9.75;93.42;99315.94;5050597;28;20716;-73
2023/01/11 10:57:39;;;;;;;0.40;0.40;;;;;;;9.83;92.59;99311.41;5048871;28;20627;-73
2023/01/11 11:00:30;;;;;;;0.73;0.73;;;;;;;9.92;93.56;99309.44;5048514;28;20227;-74
2023/01/11 11:03:27;;;;;;;0.40;0.40;;;;;;;9.97;92.85;99309.31;5049697;28;20208;-73
2023/01/11 11:06:00;;;;;;;0.50;0.50;;;;;;;9.97;91.03;99311.88;5050855;28;20723;-73
2023/01/11 11:08:30;;;;;;;0.60;0.60;;;;;;;9.99;90.08;99310.09;5047871;28;20597;-73
2023/01/11 11:11:01;;;;;;;0.40;0.40;;;;;;;10.07;90.63;99307.31;5046915;28;20208;-73
2023/01/11 11:13:41;;;;;;;0.40;0.40;;;;;;;10.08;91.43;99307.25;5050440;28;20668;-73
2023/01/11 11:16:26;;;;;;;0.43;0.43;;;;;;;10.09;90.43;99306.38;5049802;28;20208;-74
2023/01/11 11:18:57;;;;;;;0.50;0.50;;;;;;;10.13;90.61;99299.44;5049640;28;20246;-73
2023/01/11 11:21:27;;;;;;;0.50;0.50;;;;;;;10.20;91.30;99304.38;5050142;28;20224;-72
2023/01/11 11:23:58;;;;;;;0.70;0.70;;;;;;;10.26;90.94;99301.63;5049198;28;20289;-74
2023/01/11 11:26:32;;;;;;;0.43;0.43;;;;;;;10.33;91.90;99299.72;5047016;28;20208;-72
2023/01/11 11:29:02;;;;;;;0.40;0.40;;;;;;;10.32;91.04;99301.44;5048317;28;20208;-73
2023/01/11 11:31:31;;;;;;;0.50;0.50;;;;;;;10.32;90.57;99288.63;5044534;28;20658;-73
2023/01/11 11:34:05;;;;;;;0.60;0.60;;;;;;;10.23;90.50;99281.22;5048699;28;20687;-73
2023/01/11 11:36:41;;;;;;;0.50;0.50;;;;;;;10.26;90.27;99286.25;5045148;28;20207;-69
2023/01/11 11:39:11;;;;;;;0.40;0.40;;;;;;;10.36;89.80;99304.75;5048725;28;20204;-70
2023/01/11 11:41:47;;;;;;;0.43;0.43;;;;;;;10.38;89.30;99308.94;5049120;28;20224;-72
2023/01/11 11:44:19;;;;;;;0.40;0.40;;;;;;;10.36;89.17;99308.16;5048526;28;20308;-74
2023/01/11 11:47:14;;;;;;;0.40;0.40;;;;;;;10.32;89.94;99318.53;5050301;28;20657;-72
2023/01/11 11:49:41;;;;;;;0.40;0.40;;;;;;;10.23;90.30;99288.91;5046889;28;20204;-73
2023/01/11 11:52:12;;;;;;;0.60;0.60;;;;;;;10.41;89.53;99311.41;5050055;28;21306;-73
2023/01/11 11:54:44;;;;;;;0.37;0.37;;;;;;;10.44;88.38;99307.91;5051096;28;20201;-73
2023/01/11 11:57:17;;;;;;;0.40;0.40;;;;;;;10.28;88.67;99289.59;5048956;28;20211;-73
2023/01/11 11:59:49;;;;;;;0.50;0.50;;;;;;;10.43;89.95;99304.53;5049498;28;20200;-73
2023/01/11 12:02:25;;;;;;;0.30;0.30;;;;;;;10.45;92.98;99297.63;5048483;28;20216;-73
2023/01/11 12:04:53;;;;;;;0.50;0.50;;;;;;;10.52;94.21;99299.09;5049823;28;20236;-73
2023/01/11 12:07:22;;;;;;;0.50;0.50;;;;;;;10.57;90.52;99298.09;5049704;28;20680;-74
2023/01/11 12:09:55;;;;;;;0.70;0.70;;;;;;;10.69;91.43;99305.41;5050078;28;20204;-74
2023/01/11 12:12:22;;;;;;;0.50;0.50;;;;;;;10.75;91.75;99297.53;5048228;28;20204;-73
2023/01/11 12:15:17;;;;;;;0.60;0.60;;;;;;;10.82;90.34;99304.13;5050035;28;20205;-73